Time;durP1;ratioP1;P1;durP2;ratioP2;P2;SDS_P1;SDS_P2;PMS_P1;PMS_P2;Temp;Humidity;BMP_temperature;BMP_pressure;BME280_temperature;BME280_humidity;BME280_pressure;Samples;Min_cycle;Max_cycle;Signal;HPM_P1;HPM_P2
2022/02/12 00:01:02;;;;;;;12.97;6.50;;;-1.70;99.90;;;;;;5076883;28;20529;-61
2022/02/12 00:03:33;;;;;;;11.13;6.30;;;-1.70;1.00;;;;;;5077546;28;20886;-60
2022/02/12 00:06:00;;;;;;;9.13;7.00;;;-1.70;85.50;;;;;;5077311;28;20525;-60
2022/02/12 00:08:29;;;;;;;12.97;6.57;;;-1.90;99.90;;;;;;5077054;28;20469;-60
2022/02/12 00:10:58;;;;;;;21.17;7.90;;;-1.90;1.00;;;;;;5077151;28;20466;-60
2022/02/12 00:13:29;;;;;;;12.00;6.60;;;-1.90;99.90;;;;;;5077575;28;20562;-61
2022/02/12 00:15:56;;;;;;;14.80;6.87;;;-1.80;1.00;;;;;;5076200;28;20553;-60
2022/02/12 00:18:23;;;;;;;15.20;7.33;;;-1.80;99.90;;;;;;5076959;28;20911;-61
2022/02/12 00:20:50;;;;;;;19.33;7.63;;;-1.80;1.00;;;;;;5077737;28;20820;-61
2022/02/12 00:23:17;;;;;;;12.50;5.83;;;-1.90;99.90;;;;;;5076728;28;20462;-62
2022/02/12 00:25:44;;;;;;;10.63;6.83;;;-1.90;1.00;;;;;;5077275;28;21014;-62
2022/02/12 00:28:21;;;;;;;11.97;6.63;;;-2.00;99.90;;;;;;5076068;28;20469;-61
2022/02/12 00:30:50;;;;;;;12.40;6.90;;;-2.00;1.00;;;;;;5077155;28;20595;-62
2022/02/12 00:33:18;;;;;;;13.90;6.80;;;-2.10;99.90;;;;;;5077292;28;20866;-61
2022/02/12 00:35:46;;;;;;;11.83;7.40;;;-2.00;1.00;;;;;;5082564;28;20457;-62
2022/02/12 00:38:14;;;;;;;11.47;6.97;;;-2.10;99.90;;;;;;5080853;28;20468;-61
2022/02/12 00:40:40;;;;;;;12.50;6.57;;;-2.00;1.00;;;;;;5076889;28;20736;-62
2022/02/12 00:43:08;;;;;;;11.80;6.20;;;-2.20;99.90;;;;;;5076599;28;20494;-62
2022/02/12 00:45:35;;;;;;;16.57;6.60;;;-2.20;1.00;;;;;;5076427;28;20500;-62
2022/02/12 00:48:03;;;;;;;11.63;6.40;;;-2.10;99.90;;;;;;5076129;28;20465;-62
2022/02/12 00:50:30;;;;;;;10.80;6.60;;;-2.10;99.90;;;;;;5076529;28;20523;-59
2022/02/12 00:52:59;;;;;;;17.00;7.47;;;-2.10;99.90;;;;;;5076159;28;20465;-62
2022/02/12 00:55:27;;;;;;;10.70;5.47;;;-2.10;99.90;;;;;;5076274;28;20457;-62
2022/02/12 00:57:55;;;;;;;13.50;6.73;;;-2.10;99.90;;;;;;5075508;28;20519;-61
2022/02/12 01:00:22;;;;;;;13.80;6.03;;;-2.10;99.90;;;;;;5076201;28;20461;-62
2022/02/12 01:02:49;;;;;;;9.10;5.90;;;-2.10;1.00;;;;;;5076097;28;20511;-62
2022/02/12 01:05:20;;;;;;;15.30;6.30;;;-2.20;99.90;;;;;;5076113;28;20516;-62
2022/02/12 01:07:47;;;;;;;16.10;6.70;;;-2.20;99.90;;;;;;5075577;28;20461;-61
2022/02/12 01:10:15;;;;;;;11.00;6.67;;;-2.20;89.60;;;;;;5055754;28;20462;-62
2022/02/12 01:12:45;;;;;;;13.43;7.27;;;-2.30;1.00;;;;;;5069213;28;20524;-62
2022/02/12 01:15:12;;;;;;;11.80;6.33;;;-2.30;99.90;;;;;;5075985;28;20899;-62
2022/02/12 01:17:39;;;;;;;11.07;5.87;;;-2.30;99.90;;;;;;5076478;28;20457;-62
2022/02/12 01:20:08;;;;;;;12.23;6.63;;;-2.30;1.00;;;;;;5075341;28;20530;-62
2022/02/12 01:22:37;;;;;;;11.30;6.43;;;-2.30;1.00;;;;;;5079287;28;20529;-62
2022/02/12 01:25:08;;;;;;;18.23;8.37;;;-2.30;1.00;;;;;;5079725;28;20504;-62
2022/02/12 01:27:35;;;;;;;17.13;6.90;;;-2.30;1.00;;;;;;5078919;28;20822;-60
2022/02/12 01:30:02;;;;;;;11.43;6.00;;;-2.30;1.00;;;;;;5078893;28;20519;-62
2022/02/12 01:32:30;;;;;;;11.23;6.57;;;-2.30;1.00;;;;;;5079939;28;20465;-62
2022/02/12 01:34:59;;;;;;;9.67;6.33;;;-2.40;1.00;;;;;;5079288;28;20972;-63
2022/02/12 01:37:27;;;;;;;11.87;6.03;;;-2.30;1.00;;;;;;5059855;28;20822;-63
2022/02/12 01:39:58;;;;;;;19.63;7.10;;;-2.40;1.00;;;;;;5065162;28;20497;-62
2022/02/12 01:42:27;;;;;;;13.50;7.13;;;-2.50;1.00;;;;;;5079534;28;20461;-62
2022/02/12 01:45:00;;;;;;;11.07;6.10;;;-2.50;1.00;;;;;;5078731;28;20469;-62
2022/02/12 01:47:28;;;;;;;13.93;7.30;;;-2.50;1.00;;;;;;5079299;28;20555;-62
2022/02/12 01:50:01;;;;;;;11.97;7.53;;;-2.40;1.00;;;;;;5078964;28;20516;-62
2022/02/12 01:52:31;;;;;;;12.63;7.20;;;-2.50;1.00;;;;;;5079390;28;20444;-62
2022/02/12 01:55:00;;;;;;;16.97;7.27;;;-2.50;1.00;;;;;;5078956;28;20469;-60
2022/02/12 01:57:27;;;;;;;17.23;8.63;;;-2.60;3.70;;;;;;5078723;28;20912;-62
2022/02/12 01:59:54;;;;;;;15.13;7.43;;;-2.60;2.10;;;;;;5078829;28;20821;-62
2022/02/12 02:02:22;;;;;;;14.93;7.23;;;-2.50;21.70;;;;;;5078359;28;20473;-62
2022/02/12 02:04:49;;;;;;;10.87;6.87;;;-2.50;37.60;;;;;;5078743;28;20514;-62
2022/02/12 02:07:16;;;;;;;12.83;7.40;;;-2.50;13.60;;;;;;5079093;28;20525;-61
2022/02/12 02:09:47;;;;;;;19.13;7.40;;;-2.60;1.00;;;;;;5078756;28;20458;-62
2022/02/12 02:12:15;;;;;;;10.60;6.40;;;-2.60;1.00;;;;;;5078321;28;20760;-62
2022/02/12 02:14:42;;;;;;;9.93;6.23;;;-2.60;1.00;;;;;;5079255;28;20557;-62
2022/02/12 02:17:11;;;;;;;10.43;7.47;;;-2.60;1.00;;;;;;5079240;28;20753;-62
2022/02/12 02:19:38;;;;;;;12.90;6.73;;;-2.60;1.00;;;;;;5079739;28;20469;-63
2022/02/12 02:22:10;;;;;;;15.67;7.90;;;-2.60;1.00;;;;;;5078497;28;20484;-62
2022/02/12 02:24:39;;;;;;;13.40;7.00;;;-2.60;1.00;;;;;;5079186;28;20764;-62
2022/02/12 02:27:10;;;;;;;12.37;7.30;;;-2.60;1.00;;;;;;5079031;28;20558;-62
2022/02/12 02:29:42;;;;;;;10.27;6.93;;;-2.70;1.00;;;;;;5079162;28;21030;-62
2022/02/12 02:32:10;;;;;;;26.43;8.07;;;-2.70;1.00;;;;;;5078536;28;20752;-62
2022/02/12 02:34:38;;;;;;;12.80;7.33;;;-2.70;1.00;;;;;;5078680;28;20462;-62
2022/02/12 02:37:10;;;;;;;12.63;7.20;;;-2.70;1.00;;;;;;5078686;28;21000;-63
2022/02/12 02:39:38;;;;;;;12.23;6.73;;;-2.80;1.00;;;;;;5078858;28;20481;-63
2022/02/12 02:42:05;;;;;;;10.83;6.00;;;-2.80;1.00;;;;;;5078312;28;20877;-63
2022/02/12 02:44:32;;;;;;;12.67;6.63;;;-2.80;1.00;;;;;;5078385;28;20442;-63
2022/02/12 02:49:49;;;;;;;13.80;6.07;;;-2.80;1.00;;;;;;5074482;28;20498;-63
2022/02/12 02:57:52;;;;;;;12.83;6.40;;;-2.80;1.00;;;;;;5067513;28;20522;-63
2022/02/12 03:00:20;;;;;;;11.57;7.30;;;-2.80;1.00;;;;;;5078670;28;20461;-62
2022/02/12 03:02:52;;;;;;;9.40;6.20;;;-2.70;1.00;;;;;;5077731;28;20487;-63
2022/02/12 03:05:20;;;;;;;12.50;5.93;;;-2.70;1.00;;;;;;5076569;28;20472;-63
2022/02/12 03:07:47;;;;;;;12.40;6.40;;;-2.80;1.00;;;;;;5077384;28;20436;-63
2022/02/12 03:10:15;;;;;;;10.87;6.50;;;-2.80;1.00;;;;;;5076914;28;20468;-63
2022/02/12 03:12:42;;;;;;;10.80;7.50;;;-2.80;1.00;;;;;;5077904;28;20465;-63
2022/02/12 03:15:12;;;;;;;12.53;6.33;;;-2.80;1.00;;;;;;5077923;28;20510;-63
2022/02/12 03:17:44;;;;;;;12.03;6.27;;;-2.80;1.00;;;;;;5079039;28;20906;-63
2022/02/12 03:20:11;;;;;;;16.33;6.67;;;-2.80;1.00;;;;;;5058507;28;20891;-63
2022/02/12 03:22:39;;;;;;;9.77;6.80;;;-2.90;1.00;;;;;;5058660;28;20448;-63
2022/02/12 03:25:09;;;;;;;10.33;6.23;;;-2.90;1.00;;;;;;5068727;28;20526;-62
2022/02/12 03:27:37;;;;;;;14.27;7.07;;;-2.90;1.00;;;;;;5078550;28;20485;-63
2022/02/12 03:30:08;;;;;;;12.30;7.03;;;-2.90;1.00;;;;;;5077797;28;20503;-62
2022/02/12 03:32:35;;;;;;;10.13;6.67;;;-3.00;1.00;;;;;;5078061;28;20469;-63
2022/02/12 03:35:02;;;;;;;11.43;7.10;;;-2.90;1.00;;;;;;5077560;28;20890;-63
2022/02/12 03:37:29;;;;;;;13.50;7.27;;;-2.90;1.00;;;;;;5078146;28;20468;-63
2022/02/12 03:39:56;;;;;;;12.13;6.50;;;-3.00;1.00;;;;;;5077542;28;20469;-63
2022/02/12 03:42:26;;;;;;;14.33;6.37;;;-2.90;1.00;;;;;;5078057;28;20472;-62
2022/02/12 03:44:55;;;;;;;13.23;6.77;;;-2.90;1.00;;;;;;5077510;28;20529;-62
2022/02/12 03:47:22;;;;;;;13.50;6.03;;;-2.90;1.00;;;;;;5078491;28;20489;-63
2022/02/12 03:49:51;;;;;;;10.87;6.50;;;-2.80;1.00;;;;;;5077797;28;20515;-63
2022/02/12 03:52:18;;;;;;;12.87;6.90;;;-2.90;1.00;;;;;;5078045;28;20498;-62
2022/02/12 03:54:45;;;;;;;10.10;6.67;;;-2.90;1.00;;;;;;5078284;28;20949;-63
2022/02/12 03:57:12;;;;;;;11.50;6.73;;;-3.00;1.00;;;;;;5077268;28;21023;-63
2022/02/12 03:59:39;;;;;;;14.53;7.30;;;-2.90;1.00;;;;;;5078313;28;20755;-63
2022/02/12 04:02:08;;;;;;;14.43;6.30;;;-2.90;1.00;;;;;;5078316;28;20458;-63
2022/02/12 04:04:37;;;;;;;16.90;6.97;;;-2.90;1.00;;;;;;5078267;28;20469;-63
2022/02/12 04:07:07;;;;;;;10.30;6.13;;;-3.00;11.70;;;;;;5076730;28;20493;-63
2022/02/12 04:09:37;;;;;;;15.73;7.47;;;-2.90;27.20;;;;;;5077211;28;20435;-63
2022/02/12 04:12:07;;;;;;;14.10;6.50;;;-3.00;8.00;;;;;;5077576;28;20462;-63
2022/02/12 04:14:37;;;;;;;12.03;6.10;;;-2.90;1.00;;;;;;5076759;28;20492;-63
2022/02/12 04:17:04;;;;;;;10.80;5.87;;;-2.90;1.00;;;;;;5077991;28;20515;-63
2022/02/12 04:19:36;;;;;;;10.00;5.70;;;-2.80;1.00;;;;;;5077572;28;20548;-63
2022/02/12 04:22:03;;;;;;;15.97;6.73;;;-2.90;1.00;;;;;;5077459;28;20465;-63
2022/02/12 04:24:30;;;;;;;15.53;6.50;;;-2.90;1.00;;;;;;5078518;28;20461;-63
2022/02/12 04:26:57;;;;;;;18.33;6.43;;;-2.90;1.00;;;;;;5077649;28;21040;-63
2022/02/12 04:29:24;;;;;;;12.30;6.20;;;-2.80;1.00;;;;;;5078176;28;20473;-63
2022/02/12 04:31:51;;;;;;;15.77;6.13;;;-2.80;1.00;;;;;;5077583;28;20485;-63
2022/02/12 04:34:19;;;;;;;11.63;7.23;;;-2.80;1.00;;;;;;5077581;28;20468;-62
2022/02/12 04:36:48;;;;;;;12.07;6.40;;;-2.90;99.90;;;;;;5077911;28;20492;-62
2022/02/12 04:39:15;;;;;;;9.73;5.63;;;-2.90;99.90;;;;;;5076857;28;20465;-63
2022/02/12 04:41:42;;;;;;;13.23;6.40;;;-2.90;99.90;;;;;;5077937;28;20812;-62
2022/02/12 04:44:10;;;;;;;9.03;5.37;;;-2.90;37.20;;;;;;5057499;28;20527;-62
2022/02/12 04:46:40;;;;;;;16.40;6.33;;;-2.90;1.00;;;;;;5057405;28;20509;-62
2022/02/12 04:49:07;;;;;;;14.50;6.30;;;-3.00;1.00;;;;;;5067819;28;20514;-62
2022/02/12 04:51:34;;;;;;;10.73;6.80;;;-3.10;1.00;;;;;;5077841;28;20869;-63
2022/02/12 04:54:03;;;;;;;11.73;6.53;;;-3.10;1.00;;;;;;5077032;28;20469;-62
2022/02/12 04:56:30;;;;;;;19.43;6.80;;;-3.00;99.90;;;;;;5078642;28;20502;-63
2022/02/12 04:58:59;;;;;;;14.70;6.00;;;-2.90;99.90;;;;;;5080609;28;20469;-63
2022/02/12 05:01:26;;;;;;;9.20;6.03;;;-2.90;99.90;;;;;;5081262;28;20460;-63
2022/02/12 05:03:56;;;;;;;11.33;6.57;;;-2.90;99.90;;;;;;5080989;28;20811;-63
2022/02/12 05:06:24;;;;;;;14.87;6.70;;;-2.90;99.90;;;;;;5080960;28;20492;-63
2022/02/12 05:08:51;;;;;;;13.47;5.70;;;-3.00;1.00;;;;;;5080445;28;20464;-63
2022/02/12 05:11:21;;;;;;;15.30;6.57;;;-2.90;1.00;;;;;;5080795;28;20798;-63
2022/02/12 05:13:48;;;;;;;13.63;6.77;;;-2.90;1.00;;;;;;5080478;28;20518;-62
2022/02/12 05:16:15;;;;;;;13.27;6.67;;;-2.90;1.10;;;;;;5080301;28;20465;-63
2022/02/12 05:18:42;;;;;;;8.43;4.83;;;-2.90;34.00;;;;;;5080602;28;20804;-63
2022/02/12 05:21:09;;;;;;;11.33;6.40;;;-2.90;1.00;;;;;;5080235;28;20510;-62
2022/02/12 05:23:36;;;;;;;14.53;6.40;;;-3.00;1.00;;;;;;5080493;28;20465;-62
2022/02/12 05:26:04;;;;;;;20.80;6.53;;;-3.00;99.90;;;;;;5080610;28;20457;-62
2022/02/12 05:28:32;;;;;;;11.57;6.33;;;-3.00;22.90;;;;;;5080424;28;20501;-62
2022/02/12 05:30:59;;;;;;;11.47;5.83;;;-3.10;99.90;;;;;;5079487;28;20495;-62
2022/02/12 05:33:26;;;;;;;9.60;5.50;;;-3.10;99.90;;;;;;5080595;28;20462;-59
2022/02/12 05:35:53;;;;;;;11.40;6.27;;;-3.10;1.00;;;;;;5079837;28;20457;-63
2022/02/12 05:38:21;;;;;;;12.93;6.00;;;-3.00;1.00;;;;;;5080620;28;20446;-62
2022/02/12 05:40:48;;;;;;;11.53;6.53;;;-3.10;1.00;;;;;;5079923;28;20465;-62
2022/02/12 05:43:15;;;;;;;11.67;6.03;;;-3.00;1.00;;;;;;5080523;28;20468;-62
2022/02/12 05:45:44;;;;;;;10.53;6.23;;;-3.10;99.90;;;;;;5080025;28;20453;-62
2022/02/12 05:48:11;;;;;;;15.33;6.03;;;-3.00;1.00;;;;;;5080235;28;20492;-62
2022/02/12 05:50:41;;;;;;;12.00;6.10;;;-3.10;1.00;;;;;;5080834;28;20440;-63
2022/02/12 05:53:08;;;;;;;12.37;6.13;;;-3.00;1.00;;;;;;5080848;28;20461;-63
2022/02/12 05:55:35;;;;;;;12.37;5.83;;;-3.10;99.90;;;;;;5079351;28;20465;-63
2022/02/12 05:58:02;;;;;;;14.67;6.30;;;-3.20;99.90;;;;;;5078755;28;20543;-63
2022/02/12 06:00:29;;;;;;;14.40;6.33;;;-3.20;1.00;;;;;;5078939;28;20465;-63
2022/02/12 06:02:59;;;;;;;25.23;6.70;;;-3.10;99.00;;;;;;5078603;28;20464;-62
2022/02/12 06:05:26;;;;;;;15.63;5.83;;;-3.20;99.90;;;;;;5078804;28;20531;-63
2022/02/12 06:07:53;;;;;;;9.50;6.50;;;-3.20;1.00;;;;;;5077895;28;20493;-63
2022/02/12 06:10:21;;;;;;;11.23;7.00;;;-3.20;96.90;;;;;;5078087;28;20530;-62
2022/02/12 06:12:48;;;;;;;13.07;5.47;;;-3.20;81.30;;;;;;5078254;28;20559;-62
2022/02/12 06:15:15;;;;;;;9.80;6.70;;;-3.20;99.90;;;;;;5078749;28;20465;-62
2022/02/12 06:17:48;;;;;;;11.63;6.07;;;-3.30;1.00;;;;;;5078066;28;20534;-62
2022/02/12 06:20:17;;;;;;;11.10;5.60;;;-3.20;34.60;;;;;;5077167;28;20587;-62
2022/02/12 06:22:43;;;;;;;19.33;6.30;;;-3.20;99.90;;;;;;5076282;28;20472;-62
2022/02/12 06:25:11;;;;;;;17.93;6.77;;;-3.20;99.90;;;;;;5077409;28;20449;-60
2022/02/12 06:27:41;;;;;;;18.67;5.97;;;-3.20;99.90;;;;;;5076364;28;20611;-62
2022/02/12 06:30:11;;;;;;;11.77;6.63;;;-3.10;37.30;;;;;;5076356;28;20838;-62
2022/02/12 06:32:38;;;;;;;12.67;5.90;;;-3.10;1.00;;;;;;5076690;28;20464;-62
2022/02/12 06:35:05;;;;;;;13.73;5.97;;;-3.10;99.90;;;;;;5077300;28;20454;-62
2022/02/12 06:37:35;;;;;;;17.83;6.30;;;-3.20;1.00;;;;;;5077257;28;20458;-62
2022/02/12 06:40:02;;;;;;;12.57;6.33;;;-3.20;1.00;;;;;;5074824;28;20462;-61
2022/02/12 06:42:31;;;;;;;12.40;5.07;;;-3.00;1.00;;;;;;5077571;28;20518;-56
2022/02/12 06:44:58;;;;;;;23.53;9.17;;;-2.90;99.90;;;;;;5077912;28;20534;-59
2022/02/12 06:47:25;;;;;;;27.67;10.03;;;-2.90;99.90;;;;;;5076557;28;20474;-60
2022/02/12 06:49:52;;;;;;;15.70;9.33;;;-2.80;98.00;;;;;;5077731;28;20465;-56
2022/02/12 06:52:19;;;;;;;14.30;5.77;;;-2.80;1.00;;;;;;5077351;28;20898;-61
2022/02/12 06:54:48;;;;;;;10.60;5.60;;;-2.80;1.00;;;;;;5077512;28;20780;-61
2022/02/12 06:57:15;;;;;;;10.67;5.40;;;-2.80;1.00;;;;;;5076957;28;20485;-61
2022/02/12 06:59:43;;;;;;;11.20;5.50;;;-2.80;1.00;;;;;;5077257;28;20461;-61
2022/02/12 07:02:10;;;;;;;17.77;7.30;;;-2.80;99.90;;;;;;5077367;28;21001;-58
2022/02/12 07:04:38;;;;;;;14.10;7.23;;;-2.80;99.90;;;;;;5077632;28;20474;-59
2022/02/12 07:07:07;;;;;;;12.10;6.40;;;-2.80;11.90;;;;;;5077186;28;20489;-60
2022/02/12 07:09:34;;;;;;;10.23;5.10;;;-2.80;1.00;;;;;;5076340;28;20817;-59
2022/02/12 07:12:13;;;;;;;11.97;6.47;;;-2.80;1.00;;;;;;5076411;28;20940;-61
2022/02/12 07:14:41;;;;;;;9.93;5.90;;;-2.80;1.00;;;;;;5076293;28;20447;-60
2022/02/12 07:17:08;;;;;;;14.37;6.87;;;-2.80;85.90;;;;;;5076718;28;20461;-60
2022/02/12 07:19:37;;;;;;;10.00;5.20;;;-2.80;99.90;;;;;;5075982;28;20465;-60
2022/02/12 07:22:07;;;;;;;7.43;5.70;;;-2.80;99.90;;;;;;5076970;28;20515;-56
2022/02/12 07:24:34;;;;;;;13.17;5.90;;;-2.70;70.60;;;;;;5076652;28;20466;-58
2022/02/12 07:27:03;;;;;;;11.80;6.63;;;-2.70;99.90;;;;;;5077111;28;20566;-58
2022/02/12 07:29:34;;;;;;;11.70;6.60;;;-2.60;99.90;;;;;;5076392;28;20466;-59
2022/02/12 07:32:02;;;;;;;17.23;8.40;;;-2.50;1.00;;;;;;5076014;28;20896;-61
2022/02/12 07:34:29;;;;;;;11.73;7.10;;;-2.40;1.00;;;;;;5076401;28;20469;-55
2022/02/12 07:36:56;;;;;;;22.17;7.67;;;-2.40;1.00;;;;;;5076806;28;20469;-54
2022/02/12 07:39:25;;;;;;;17.00;7.90;;;-2.40;1.00;;;;;;5076659;28;20469;-57
2022/02/12 07:41:54;;;;;;;14.80;8.00;;;-2.30;1.00;;;;;;5076142;28;20926;-58
2022/02/12 07:44:25;;;;;;;24.63;11.00;;;-2.20;99.90;;;;;;5076460;28;20473;-60
2022/02/12 07:46:52;;;;;;;13.13;7.37;;;-2.10;99.90;;;;;;5076608;28;20483;-58
2022/02/12 07:49:19;;;;;;;14.50;8.60;;;-2.00;1.00;;;;;;5076725;28;20461;-57
2022/02/12 07:51:46;;;;;;;19.33;9.17;;;-2.00;99.90;;;;;;5075781;28;20465;-59
2022/02/12 07:54:14;;;;;;;18.80;8.80;;;-1.80;1.00;;;;;;5076942;28;20464;-56
2022/02/12 07:59:26;;;;;;;25.77;16.27;;;-1.70;99.90;;;;;;5075112;28;20492;-60
2022/02/12 08:01:54;;;;;;;26.23;11.53;;;-1.50;1.00;;;;;;5074166;28;20789;-58
2022/02/12 08:04:21;;;;;;;16.60;8.63;;;-1.40;1.00;;;;;;5075616;28;20467;-61
2022/02/12 08:09:41;;;;;;;20.37;8.33;;;-1.20;99.90;;;;;;5075338;28;20463;-61
2022/02/12 08:12:13;;;;;;;9.20;6.47;;;-1.00;1.00;;;;;;5075435;28;20510;-59
2022/02/12 08:14:42;;;;;;;14.27;9.90;;;-0.80;99.90;;;;;;5068846;28;20479;-61
2022/02/12 08:17:11;;;;;;;14.57;7.60;;;-0.70;99.90;;;;;;5076417;28;20459;-61
2022/02/12 08:19:41;;;;;;;17.37;7.47;;;-0.50;99.90;;;;;;5076594;28;20528;-61
2022/02/12 08:22:10;;;;;;;15.00;7.60;;;-0.40;1.00;;;;;;5076007;28;20586;-61
2022/02/12 08:24:41;;;;;;;16.83;8.17;;;-0.20;1.00;;;;;;5076338;28;20900;-61
2022/02/12 08:27:10;;;;;;;17.50;7.50;;;0.00;1.00;;;;;;5077273;28;20472;-61
2022/02/12 08:29:43;;;;;;;17.40;8.87;;;0.10;99.90;;;;;;5078005;28;20967;-61
2022/02/12 08:32:13;;;;;;;16.10;7.07;;;0.20;99.90;;;;;;5080556;28;20461;-61
2022/02/12 08:34:42;;;;;;;10.70;7.23;;;0.40;99.90;;;;;;5080550;28;20464;-60
2022/02/12 08:37:11;;;;;;;8.40;7.00;;;0.60;99.90;;;;;;5080635;28;20463;-61
2022/02/12 08:39:38;;;;;;;14.63;6.20;;;0.60;1.00;;;;;;5081136;28;20458;-59
2022/02/12 08:42:06;;;;;;;12.73;5.63;;;0.80;1.00;;;;;;5080904;28;20526;-60
2022/02/12 08:44:33;;;;;;;15.60;7.03;;;0.90;1.00;;;;;;5080058;28;20513;-61
2022/02/12 08:47:05;;;;;;;12.20;6.40;;;1.10;1.00;;;;;;5080671;28;20541;-61
2022/02/12 08:49:32;;;;;;;11.67;5.80;;;1.20;1.00;;;;;;5081094;28;20775;-61
2022/02/12 08:52:00;;;;;;;10.50;5.40;;;1.30;1.00;;;;;;5079873;28;20541;-60
2022/02/12 08:54:26;;;;;;;9.63;4.63;;;1.40;1.00;;;;;;5072146;28;20483;-59
2022/02/12 08:56:54;;;;;;;12.37;5.43;;;1.50;1.00;;;;;;5079630;28;20550;-59
2022/02/12 08:59:21;;;;;;;10.77;5.30;;;1.50;1.00;;;;;;5079394;28;20902;-61
2022/02/12 09:01:50;;;;;;;8.73;5.20;;;1.60;1.00;;;;;;5079001;28;20530;-61
2022/02/12 09:04:18;;;;;;;10.43;5.20;;;1.60;1.00;;;;;;5079104;28;20469;-60
2022/02/12 09:06:46;;;;;;;9.23;4.77;;;1.70;1.00;;;;;;5080364;28;20464;-55
2022/02/12 09:09:13;;;;;;;12.97;4.20;;;1.80;1.00;;;;;;5079298;28;20489;-59
2022/02/12 09:11:46;;;;;;;12.03;4.70;;;1.80;1.00;;;;;;5080043;28;20511;-57
2022/02/12 09:14:14;;;;;;;9.37;4.93;;;2.00;1.00;;;;;;5079328;28;20465;-58
2022/02/12 09:16:42;;;;;;;9.70;4.43;;;2.10;1.00;;;;;;5079187;28;20893;-60
2022/02/12 09:19:09;;;;;;;11.07;4.57;;;2.20;1.00;;;;;;5079025;28;20474;-60
2022/02/12 09:21:37;;;;;;;13.13;4.43;;;2.40;1.00;;;;;;5080594;28;20514;-61
2022/02/12 09:24:06;;;;;;;11.37;5.60;;;2.50;1.00;;;;;;5079795;28;20773;-61
2022/02/12 09:26:33;;;;;;;18.13;5.37;;;2.70;1.00;;;;;;5078995;28;20514;-61
2022/02/12 09:29:04;;;;;;;14.07;7.00;;;2.80;1.00;;;;;;5079178;28;20496;-61
2022/02/12 09:31:31;;;;;;;14.97;4.77;;;3.00;1.00;;;;;;5078276;28;20778;-61
2022/02/12 09:34:01;;;;;;;11.13;5.93;;;3.00;1.00;;;;;;5077860;28;20461;-61
2022/02/12 09:36:31;;;;;;;14.90;7.17;;;3.20;1.00;;;;;;5090979;28;20917;-61
2022/02/12 09:39:02;;;;;;;13.60;5.07;;;3.40;1.00;;;;;;5099882;28;20506;-59
2022/02/12 09:41:32;;;;;;;10.23;4.97;;;3.40;1.00;;;;;;5093867;28;20469;-62
2022/02/12 09:43:59;;;;;;;15.90;4.77;;;3.40;1.00;;;;;;5079276;28;20512;-62
2022/02/12 09:47:04;;;;;;;8.60;5.27;;;3.50;1.00;;;;;;5079267;28;20468;-61
2022/02/12 09:49:34;;;;;;;16.00;4.53;;;3.60;1.00;;;;;;5062506;28;20790;-62
2022/02/12 09:52:04;;;;;;;12.97;4.33;;;3.60;1.00;;;;;;5078737;28;20560;-62
2022/02/12 09:54:32;;;;;;;11.13;4.20;;;3.70;1.00;;;;;;5079722;28;20744;-62
2022/02/12 09:57:00;;;;;;;12.83;4.43;;;3.80;1.00;;;;;;5078966;28;20493;-63
2022/02/12 09:59:30;;;;;;;10.60;4.27;;;3.90;1.00;;;;;;5079525;28;20594;-63
2022/02/12 10:02:01;;;;;;;16.33;4.30;;;4.20;1.00;;;;;;5078718;28;20473;-63
2022/02/12 10:04:33;;;;;;;8.90;4.80;;;4.30;1.00;;;;;;5078829;28;20542;-63
2022/02/12 10:07:00;;;;;;;10.67;4.40;;;4.20;99.90;;;;;;5078583;28;20467;-63
2022/02/12 10:09:30;;;;;;;7.30;4.53;;;4.40;99.90;;;;;;5077897;28;20911;-63
2022/02/12 10:12:01;;;;;;;10.60;4.70;;;4.60;99.90;;;;;;5078088;28;20515;-63
2022/02/12 10:14:36;;;;;;;18.13;5.20;;;4.80;99.90;;;;;;5078523;28;20495;-63
2022/02/12 10:17:06;;;;;;;10.67;4.23;;;5.00;99.90;;;;;;5073747;28;20518;-63
2022/02/12 10:19:35;;;;;;;7.77;4.17;;;5.10;99.90;;;;;;5078965;28;20811;-63
2022/02/12 10:22:15;;;;;;;13.70;4.60;;;5.10;99.90;;;;;;5079203;28;20465;-63
2022/02/12 10:25:00;;;;;;;8.63;5.00;;;5.20;99.90;;;;;;5077854;28;20465;-63
2022/02/12 10:27:29;;;;;;;8.87;4.80;;;5.40;99.90;;;;;;5077549;28;20428;-65
2022/02/12 10:30:06;;;;;;;9.10;3.80;;;5.40;99.90;;;;;;5076641;28;20529;-65
2022/02/12 10:32:41;;;;;;;11.73;4.40;;;5.60;99.90;;;;;;5078054;28;20500;-65
2022/02/12 10:35:17;;;;;;;6.33;4.23;;;5.80;99.90;;;;;;5079254;28;20436;-65
2022/02/12 10:37:48;;;;;;;11.93;4.97;;;6.10;99.90;;;;;;5080667;28;20460;-65
2022/02/12 10:40:16;;;;;;;10.57;5.40;;;6.30;99.90;;;;;;5078157;28;20465;-65
2022/02/12 10:42:47;;;;;;;12.20;4.80;;;6.60;99.90;;;;;;5076955;28;20457;-63
2022/02/12 10:45:18;;;;;;;7.10;3.87;;;6.40;99.90;;;;;;5077989;28;20776;-63
2022/02/12 10:47:48;;;;;;;7.03;3.23;;;6.40;99.90;;;;;;5078142;28;20491;-63
2022/02/12 10:50:17;;;;;;;14.30;5.87;;;6.20;99.90;;;;;;5077674;28;20469;-63
2022/02/12 10:52:47;;;;;;;24.47;9.83;;;6.10;99.90;;;;;;5077432;28;20523;-61
2022/02/12 10:55:35;;;;;;;25.37;12.90;;;6.20;99.90;;;;;;5077909;28;20468;-63
2022/02/12 10:58:08;;;;;;;13.57;6.90;;;6.40;99.90;;;;;;5077542;28;20572;-63
2022/02/12 11:00:38;;;;;;;16.60;7.53;;;6.70;99.90;;;;;;5077337;28;20514;-62
2022/02/12 11:03:09;;;;;;;26.20;13.80;;;6.70;99.90;;;;;;5078138;28;20471;-62
2022/02/12 11:05:37;;;;;;;11.00;4.30;;;6.80;99.90;;;;;;5076990;28;20793;-62
2022/02/12 11:08:07;;;;;;;14.53;6.27;;;6.70;99.90;;;;;;5077329;28;20495;-61
2022/02/12 11:10:42;;;;;;;16.73;7.10;;;6.10;99.90;;;;;;5077943;28;21010;-61
2022/02/12 11:13:16;;;;;;;9.80;6.23;;;5.90;99.90;;;;;;5077778;28;20472;-61
2022/02/12 11:15:45;;;;;;;13.60;5.30;;;6.10;99.90;;;;;;5076773;28;20447;-60
2022/02/12 11:18:20;;;;;;;13.23;4.30;;;6.40;99.90;;;;;;5078070;28;20465;-59
2022/02/12 11:20:48;;;;;;;7.40;5.07;;;6.60;99.90;;;;;;5077337;28;20435;-60
2022/02/12 11:23:27;;;;;;;12.70;4.70;;;6.70;99.90;;;;;;5077463;28;20579;-60
2022/02/12 11:25:55;;;;;;;9.03;4.83;;;6.90;99.90;;;;;;5076724;28;20476;-59
2022/02/12 11:28:30;;;;;;;9.33;3.73;;;6.80;99.90;;;;;;5076835;28;20484;-61
2022/02/12 11:31:18;;;;;;;6.57;4.07;;;6.80;99.90;;;;;;5077214;28;20447;-61
2022/02/12 11:34:14;;;;;;;9.53;3.50;;;6.50;99.90;;;;;;5077388;28;20870;-58
2022/02/12 11:36:45;;;;;;;10.23;4.30;;;6.80;99.90;;;;;;5085337;28;20436;-60
2022/02/12 11:39:14;;;;;;;6.30;4.20;;;6.80;99.90;;;;;;5077225;28;20465;-61
2022/02/12 11:41:45;;;;;;;7.73;3.50;;;6.60;99.90;;;;;;5077199;28;20530;-61
2022/02/12 11:44:39;;;;;;;13.73;4.50;;;6.70;99.90;;;;;;5077160;28;20464;-61
2022/02/12 11:47:07;;;;;;;10.93;3.43;;;6.60;99.90;;;;;;5076971;28;20461;-61
2022/02/12 11:49:38;;;;;;;7.57;4.10;;;6.80;99.90;;;;;;5077694;28;20761;-59
2022/02/12 11:52:09;;;;;;;6.80;3.30;;;6.90;99.90;;;;;;5076598;28;20469;-60
2022/02/12 11:55:00;;;;;;;12.27;4.00;;;7.00;99.90;;;;;;5077226;28;20827;-56
2022/02/12 11:57:44;;;;;;;9.10;4.23;;;7.20;99.90;;;;;;5076416;28;20572;-59
2022/02/12 12:00:50;;;;;;;9.23;4.10;;;7.40;99.90;;;;;;5077114;28;20857;-58
2022/02/12 12:03:22;;;;;;;7.10;3.67;;;7.40;99.90;;;;;;5069986;28;20499;-59
2022/02/12 12:06:09;;;;;;;6.57;3.47;;;7.70;99.90;;;;;;5075963;28;20909;-61
2022/02/12 12:09:04;;;;;;;7.90;3.50;;;7.70;99.90;;;;;;5075282;28;20823;-60
2022/02/12 12:11:31;;;;;;;8.17;3.90;;;7.50;99.90;;;;;;5075941;28;20466;-61
2022/02/12 12:13:59;;;;;;;7.27;3.57;;;7.50;99.90;;;;;;5074826;28;20473;-57
2022/02/12 12:16:33;;;;;;;10.20;5.20;;;7.60;99.90;;;;;;5074339;28;20772;-60
2022/02/12 12:19:02;;;;;;;11.00;5.03;;;7.40;99.90;;;;;;5075433;28;20457;-59
2022/02/12 12:21:32;;;;;;;15.60;4.20;;;7.20;99.90;;;;;;5073272;28;20489;-59
2022/02/12 12:24:02;;;;;;;7.17;4.83;;;7.10;99.90;;;;;;5074348;28;20518;-58
2022/02/12 12:26:50;;;;;;;9.67;4.33;;;7.20;99.90;;;;;;5075028;28;20469;-59
2022/02/12 12:32:10;;;;;;;13.27;4.90;;;7.60;99.90;;;;;;5075632;28;20909;-60
2022/02/12 12:34:51;;;;;;;9.47;4.30;;;7.60;99.90;;;;;;5076884;28;20465;-59
2022/02/12 12:37:19;;;;;;;8.63;5.10;;;7.50;99.90;;;;;;5076103;28;20461;-60
2022/02/12 12:39:50;;;;;;;10.83;4.50;;;7.30;99.90;;;;;;5076156;28;20469;-55
2022/02/12 12:42:19;;;;;;;6.30;3.53;;;7.40;99.90;;;;;;5074841;28;20972;-58
2022/02/12 12:48:10;;;;;;;7.80;3.97;;;8.20;99.90;;;;;;5076266;28;20405;-59
2022/02/12 12:50:42;;;;;;;8.13;4.30;;;8.30;99.90;;;;;;5076031;28;20875;-56
2022/02/12 12:53:11;;;;;;;9.00;4.10;;;8.00;99.90;;;;;;5074726;28;20457;-54
2022/02/12 12:55:48;;;;;;;8.77;4.60;;;8.10;99.90;;;;;;5076282;28;20737;-56
2022/02/12 12:58:16;;;;;;;7.80;4.03;;;8.10;99.90;;;;;;5075973;28;20542;-57
2022/02/12 13:00:50;;;;;;;11.33;4.40;;;8.00;99.90;;;;;;5076176;28;20469;-57
2022/02/12 13:03:25;;;;;;;6.77;4.50;;;7.70;99.90;;;;;;5061658;28;20452;-60
2022/02/12 13:06:03;;;;;;;11.67;4.30;;;7.40;99.90;;;;;;5070873;28;20767;-59
2022/02/12 13:08:38;;;;;;;8.07;4.50;;;7.30;99.90;;;;;;5075155;28;20515;-57
2022/02/12 13:11:09;;;;;;;7.67;4.33;;;7.50;99.90;;;;;;5074730;28;20467;-57
2022/02/12 13:13:35;;;;;;;10.17;3.77;;;7.70;99.90;;;;;;5075274;28;20903;-54
2022/02/12 13:16:12;;;;;;;15.43;4.50;;;7.40;99.90;;;;;;5076360;28;20492;-55
2022/02/12 13:18:43;;;;;;;7.20;4.80;;;7.60;99.90;;;;;;5079825;28;20461;-57
2022/02/12 13:21:13;;;;;;;9.37;4.00;;;7.60;99.90;;;;;;5079561;28;20510;-57